sensor_id;sensor_type;location;lat;lon;timestamp;pressure;altitude;pressure_sealevel;temperature;humidity
36798;BME280;22748;8.426;99.512;2023-02-21T00:02:33;100921.00;;;29.05;64.54
36798;BME280;22748;8.426;99.512;2023-02-21T00:05:15;100916.47;;;28.99;64.72
36798;BME280;22748;8.426;99.512;2023-02-21T00:07:58;100922.03;;;28.97;64.81
36798;BME280;22748;8.426;99.512;2023-02-21T00:10:40;100924.91;;;28.96;64.55
36798;BME280;22748;8.426;99.512;2023-02-21T00:13:24;100929.66;;;28.93;64.63
36798;BME280;22748;8.426;99.512;2023-02-21T00:16:09;100932.34;;;28.93;64.93
36798;BME280;22748;8.426;99.512;2023-02-21T00:18:54;100948.50;;;28.93;65.12
36798;BME280;22748;8.426;99.512;2023-02-21T00:21:37;100950.16;;;28.95;65.29
36798;BME280;22748;8.426;99.512;2023-02-21T00:24:19;100957.59;;;28.92;64.81
36798;BME280;22748;8.426;99.512;2023-02-21T00:27:02;100954.47;;;28.89;65.48
36798;BME280;22748;8.426;99.512;2023-02-21T00:29:47;100966.28;;;28.88;64.91
36798;BME280;22748;8.426;99.512;2023-02-21T00:32:30;100979.50;;;28.89;64.90
36798;BME280;22748;8.426;99.512;2023-02-21T00:35:14;100980.53;;;28.88;65.24
36798;BME280;22748;8.426;99.512;2023-02-21T00:37:57;100984.88;;;28.89;65.17
36798;BME280;22748;8.426;99.512;2023-02-21T00:40:41;100981.16;;;28.90;64.93
36798;BME280;22748;8.426;99.512;2023-02-21T00:43:29;100991.91;;;28.90;65.24
36798;BME280;22748;8.426;99.512;2023-02-21T00:46:13;100984.47;;;28.92;65.38
36798;BME280;22748;8.426;99.512;2023-02-21T00:48:58;100992.34;;;28.94;65.55
36798;BME280;22748;8.426;99.512;2023-02-21T00:51:41;101007.63;;;28.93;65.41
36798;BME280;22748;8.426;99.512;2023-02-21T00:54:24;101010.75;;;28.90;65.25
36798;BME280;22748;8.426;99.512;2023-02-21T00:57:06;101015.47;;;28.88;65.46
36798;BME280;22748;8.426;99.512;2023-02-21T00:59:48;101014.66;;;28.88;65.85
36798;BME280;22748;8.426;99.512;2023-02-21T01:02:36;101015.41;;;28.75;66.17
36798;BME280;22748;8.426;99.512;2023-02-21T01:05:20;101015.00;;;28.78;65.92
36798;BME280;22748;8.426;99.512;2023-02-21T01:08:02;101018.34;;;28.80;66.17
36798;BME280;22748;8.426;99.512;2023-02-21T01:10:45;101020.00;;;28.81;65.94
36798;BME280;22748;8.426;99.512;2023-02-21T01:13:28;101025.56;;;28.80;66.13
36798;BME280;22748;8.426;99.512;2023-02-21T01:16:10;101028.69;;;28.77;66.23
36798;BME280;22748;8.426;99.512;2023-02-21T01:18:55;101032.38;;;28.76;66.36
36798;BME280;22748;8.426;99.512;2023-02-21T01:21:38;101027.81;;;28.76;66.51
36798;BME280;22748;8.426;99.512;2023-02-21T01:24:21;101029.50;;;28.77;66.69
36798;BME280;22748;8.426;99.512;2023-02-21T01:27:05;101032.19;;;28.77;67.15
36798;BME280;22748;8.426;99.512;2023-02-21T01:29:48;101033.19;;;28.76;66.92
36798;BME280;22748;8.426;99.512;2023-02-21T01:32:31;101040.63;;;28.74;66.87
36798;BME280;22748;8.426;99.512;2023-02-21T01:35:18;101042.31;;;28.75;66.81
36798;BME280;22748;8.426;99.512;2023-02-21T01:38:00;101047.28;;;28.78;67.11
36798;BME280;22748;8.426;99.512;2023-02-21T01:40:42;101046.44;;;28.78;66.83
36798;BME280;22748;8.426;99.512;2023-02-21T01:43:27;101050.19;;;28.77;67.06
36798;BME280;22748;8.426;99.512;2023-02-21T01:46:11;101050.38;;;28.75;67.16
36798;BME280;22748;8.426;99.512;2023-02-21T01:48:54;101051.00;;;28.77;67.21
36798;BME280;22748;8.426;99.512;2023-02-21T01:51:41;101048.94;;;28.79;67.11
36798;BME280;22748;8.426;99.512;2023-02-21T01:54:32;101038.59;;;28.83;67.21
36798;BME280;22748;8.426;99.512;2023-02-21T01:57:18;101038.84;;;28.88;66.70
36798;BME280;22748;8.426;99.512;2023-02-21T02:00:06;101031.63;;;28.88;66.69
36798;BME280;22748;8.426;99.512;2023-02-21T02:02:52;101030.38;;;28.91;66.85
36798;BME280;22748;8.426;99.512;2023-02-21T02:05:37;101037.22;;;28.93;66.36
36798;BME280;22748;8.426;99.512;2023-02-21T02:08:26;101036.81;;;28.97;66.26
36798;BME280;22748;8.426;99.512;2023-02-21T02:11:20;101035.41;;;29.01;66.20
36798;BME280;22748;8.426;99.512;2023-02-21T02:14:21;101045.75;;;29.04;66.51
36798;BME280;22748;8.426;99.512;2023-02-21T02:17:00;101042.00;;;29.05;65.49
36798;BME280;22748;8.426;99.512;2023-02-21T02:19:58;101043.78;;;28.84;66.08
36798;BME280;22748;8.426;99.512;2023-02-21T02:25:51;101052.69;;;28.85;66.25
36798;BME280;22748;8.426;99.512;2023-02-21T02:28:57;101034.75;;;28.92;66.08
36798;BME280;22748;8.426;99.512;2023-02-21T02:31:44;101027.53;;;28.99;66.18
36798;BME280;22748;8.426;99.512;2023-02-21T02:34:41;101032.31;;;29.04;66.00
36798;BME280;22748;8.426;99.512;2023-02-21T02:37:20;101032.56;;;29.09;65.59
36798;BME280;22748;8.426;99.512;2023-02-21T02:39:59;101042.09;;;29.11;65.85
36798;BME280;22748;8.426;99.512;2023-02-21T02:42:39;101043.34;;;29.16;65.53
36798;BME280;22748;8.426;99.512;2023-02-21T02:45:19;101045.84;;;29.17;64.73
36798;BME280;22748;8.426;99.512;2023-02-21T02:47:57;101056.22;;;29.20;64.58
36798;BME280;22748;8.426;99.512;2023-02-21T02:50:36;101056.22;;;29.20;64.35
36798;BME280;22748;8.426;99.512;2023-02-21T02:53:07;101054.97;;;29.23;65.01
36798;BME280;22748;8.426;99.512;2023-02-21T02:55:42;101064.88;;;29.22;64.59
36798;BME280;22748;8.426;99.512;2023-02-21T02:58:15;101063.44;;;29.26;64.70
36798;BME280;22748;8.426;99.512;2023-02-21T03:00:58;101060.13;;;29.24;64.50
36798;BME280;22748;8.426;99.512;2023-02-21T03:03:49;101053.13;;;29.30;64.66
36798;BME280;22748;8.426;99.512;2023-02-21T03:06:44;101058.31;;;29.31;64.33
36798;BME280;22748;8.426;99.512;2023-02-21T03:09:25;101052.88;;;29.18;64.70
36798;BME280;22748;8.426;99.512;2023-02-21T03:12:02;101053.09;;;29.23;64.62
36798;BME280;22748;8.426;99.512;2023-02-21T03:14:38;101053.72;;;29.25;64.23
36798;BME280;22748;8.426;99.512;2023-02-21T03:17:16;101053.28;;;29.22;64.21
36798;BME280;22748;8.426;99.512;2023-02-21T03:19:50;101050.81;;;29.20;63.71
36798;BME280;22748;8.426;99.512;2023-02-21T03:22:29;101050.00;;;29.26;63.33
36798;BME280;22748;8.426;99.512;2023-02-21T03:25:01;101043.78;;;29.26;63.79
36798;BME280;22748;8.426;99.512;2023-02-21T03:27:33;101037.19;;;29.35;63.28
36798;BME280;22748;8.426;99.512;2023-02-21T03:30:06;101035.78;;;29.46;63.39
36798;BME280;22748;8.426;99.512;2023-02-21T03:32:41;101030.84;;;29.56;62.49
36798;BME280;22748;8.426;99.512;2023-02-21T03:35:20;101024.03;;;29.67;62.46
36798;BME280;22748;8.426;99.512;2023-02-21T03:38:00;101024.06;;;29.73;60.88
36798;BME280;22748;8.426;99.512;2023-02-21T03:40:33;101024.28;;;29.79;60.83
36798;BME280;22748;8.426;99.512;2023-02-21T03:43:06;101027.38;;;29.82;61.18
36798;BME280;22748;8.426;99.512;2023-02-21T03:45:38;101019.13;;;29.84;60.66
36798;BME280;22748;8.426;99.512;2023-02-21T03:48:08;101021.81;;;29.84;60.21
36798;BME280;22748;8.426;99.512;2023-02-21T03:50:40;101024.50;;;29.84;60.70
36798;BME280;22748;8.426;99.512;2023-02-21T03:53:14;101024.06;;;29.87;60.37
36798;BME280;22748;8.426;99.512;2023-02-21T03:55:45;101028.84;;;29.91;59.45
36798;BME280;22748;8.426;99.512;2023-02-21T03:58:20;101023.69;;;29.97;59.97
36798;BME280;22748;8.426;99.512;2023-02-21T04:00:50;101028.63;;;30.00;59.50
36798;BME280;22748;8.426;99.512;2023-02-21T04:03:22;101025.31;;;30.04;59.49
36798;BME280;22748;8.426;99.512;2023-02-21T04:05:56;101013.53;;;30.05;60.05
36798;BME280;22748;8.426;99.512;2023-02-21T04:08:28;101011.66;;;30.12;60.11
36798;BME280;22748;8.426;99.512;2023-02-21T04:10:58;101007.50;;;30.10;60.13
36798;BME280;22748;8.426;99.512;2023-02-21T04:13:28;101001.28;;;30.09;60.25
36798;BME280;22748;8.426;99.512;2023-02-21T04:15:59;100989.47;;;30.17;59.71
36798;BME280;22748;8.426;99.512;2023-02-21T04:18:33;100987.59;;;30.24;59.84
36798;BME280;22748;8.426;99.512;2023-02-21T04:21:04;100984.69;;;30.26;59.24
36798;BME280;22748;8.426;99.512;2023-02-21T04:23:35;100980.94;;;30.27;60.07
36798;BME280;22748;8.426;99.512;2023-02-21T04:26:05;100980.38;;;30.31;59.81
36798;BME280;22748;8.426;99.512;2023-02-21T04:28:36;100981.00;;;30.33;58.87
36798;BME280;22748;8.426;99.512;2023-02-21T04:31:05;100975.81;;;30.32;58.83
36798;BME280;22748;8.426;99.512;2023-02-21T04:33:41;100975.19;;;30.30;59.15
36798;BME280;22748;8.426;99.512;2023-02-21T04:36:15;100968.75;;;30.31;59.05
36798;BME280;22748;8.426;99.512;2023-02-21T04:38:47;100968.75;;;30.31;59.24
36798;BME280;22748;8.426;99.512;2023-02-21T04:41:18;100974.97;;;30.25;58.64
36798;BME280;22748;8.426;99.512;2023-02-21T04:43:48;100969.78;;;30.23;59.30
36798;BME280;22748;8.426;99.512;2023-02-21T04:46:20;100967.50;;;30.20;59.75
36798;BME280;22748;8.426;99.512;2023-02-21T04:48:50;100967.72;;;30.19;59.61
36798;BME280;22748;8.426;99.512;2023-02-21T04:51:22;100966.03;;;30.24;59.46
36798;BME280;22748;8.426;99.512;2023-02-21T04:53:54;100953.81;;;30.22;59.40
36798;BME280;22748;8.426;99.512;2023-02-21T04:56:25;100945.34;;;30.25;59.49
36798;BME280;22748;8.426;99.512;2023-02-21T04:58:57;100949.06;;;30.24;59.27
36798;BME280;22748;8.426;99.512;2023-02-21T05:01:27;100940.78;;;30.25;58.38
36798;BME280;22748;8.426;99.512;2023-02-21T05:03:58;100932.44;;;30.27;58.64
36798;BME280;22748;8.426;99.512;2023-02-21T05:06:29;100929.16;;;30.25;58.19
36798;BME280;22748;8.426;99.512;2023-02-21T05:09:02;100932.44;;;30.27;58.84
36798;BME280;22748;8.426;99.512;2023-02-21T05:11:33;100927.91;;;30.27;58.27
36798;BME280;22748;8.426;99.512;2023-02-21T05:14:04;100923.78;;;30.25;59.00
36798;BME280;22748;8.426;99.512;2023-02-21T05:16:36;100921.09;;;30.25;58.55
36798;BME280;22748;8.426;99.512;2023-02-21T05:19:07;100920.88;;;30.20;58.41
36798;BME280;22748;8.426;99.512;2023-02-21T05:21:38;100920.25;;;30.18;58.47
36798;BME280;22748;8.426;99.512;2023-02-21T05:24:10;100917.38;;;30.12;58.20
36798;BME280;22748;8.426;99.512;2023-02-21T05:26:38;100918.84;;;30.08;58.59
36798;BME280;22748;8.426;99.512;2023-02-21T05:29:08;100917.59;;;30.11;57.35
36798;BME280;22748;8.426;99.512;2023-02-21T05:31:37;100906.41;;;30.07;57.57
36798;BME280;22748;8.426;99.512;2023-02-21T05:34:12;100906.41;;;30.07;57.13
36798;BME280;22748;8.426;99.512;2023-02-21T05:36:42;100907.88;;;30.10;57.78
36798;BME280;22748;8.426;99.512;2023-02-21T05:39:15;100904.53;;;30.14;57.57
36798;BME280;22748;8.426;99.512;2023-02-21T05:41:50;100898.53;;;30.12;57.45
36798;BME280;22748;8.426;99.512;2023-02-21T05:44:22;100906.16;;;30.15;57.95
36798;BME280;22748;8.426;99.512;2023-02-21T05:46:51;100902.03;;;30.20;57.40
36798;BME280;22748;8.426;99.512;2023-02-21T05:49:25;100904.31;;;30.16;57.74
36798;BME280;22748;8.426;99.512;2023-02-21T05:51:59;100903.91;;;30.19;57.07
36798;BME280;22748;8.426;99.512;2023-02-21T05:54:32;100894.38;;;30.17;56.29
36798;BME280;22748;8.426;99.512;2023-02-21T05:57:09;100892.69;;;30.15;55.74
36798;BME280;22748;8.426;99.512;2023-02-21T05:59:39;100884.25;;;30.05;55.28
36798;BME280;22748;8.426;99.512;2023-02-21T06:02:10;100876.56;;;30.09;54.49
36798;BME280;22748;8.426;99.512;2023-02-21T06:04:40;100864.34;;;30.06;54.13
36798;BME280;22748;8.426;99.512;2023-02-21T06:07:11;100868.47;;;30.09;54.17
36798;BME280;22748;8.426;99.512;2023-02-21T06:09:51;100860.63;;;30.07;54.37
36798;BME280;22748;8.426;99.512;2023-02-21T06:12:19;100860.00;;;30.12;55.25
36798;BME280;22748;8.426;99.512;2023-02-21T06:14:50;100850.47;;;30.16;54.20
36798;BME280;22748;8.426;99.512;2023-02-21T06:17:20;100850.84;;;30.20;54.38
36798;BME280;22748;8.426;99.512;2023-02-21T06:19:49;100841.72;;;30.21;54.30
36798;BME280;22748;8.426;99.512;2023-02-21T06:22:19;100828.06;;;30.15;54.58
36798;BME280;22748;8.426;99.512;2023-02-21T06:24:50;100830.34;;;30.19;55.20
36798;BME280;22748;8.426;99.512;2023-02-21T06:27:30;100822.25;;;30.19;55.50
36798;BME280;22748;8.426;99.512;2023-02-21T06:30:00;100817.50;;;30.21;55.99
36798;BME280;22748;8.426;99.512;2023-02-21T06:32:31;100807.94;;;30.25;55.67
36798;BME280;22748;8.426;99.512;2023-02-21T06:35:04;100806.47;;;30.29;55.89
36798;BME280;22748;8.426;99.512;2023-02-21T06:37:36;100790.72;;;30.32;55.99
36798;BME280;22748;8.426;99.512;2023-02-21T06:40:07;100787.81;;;30.34;56.50
36798;BME280;22748;8.426;99.512;2023-02-21T06:42:39;100787.38;;;30.37;56.38
36798;BME280;22748;8.426;99.512;2023-02-21T06:45:09;100787.41;;;30.24;56.05
36798;BME280;22748;8.426;99.512;2023-02-21T06:47:39;100788.69;;;30.21;56.42
36798;BME280;22748;8.426;99.512;2023-02-21T06:50:09;100777.91;;;30.28;56.14
36798;BME280;22748;8.426;99.512;2023-02-21T06:52:40;100763.97;;;30.31;56.32
36798;BME280;22748;8.426;99.512;2023-02-21T06:55:12;100756.50;;;30.33;56.17
36798;BME280;22748;8.426;99.512;2023-02-21T06:57:42;100756.72;;;30.38;56.26
36798;BME280;22748;8.426;99.512;2023-02-21T07:00:14;100751.69;;;30.42;55.93
36798;BME280;22748;8.426;99.512;2023-02-21T07:02:43;100752.56;;;30.35;56.63
36798;BME280;22748;8.426;99.512;2023-02-21T07:05:14;100755.81;;;30.44;56.13
36798;BME280;22748;8.426;99.512;2023-02-21T07:07:44;100740.66;;;30.50;56.00
36798;BME280;22748;8.426;99.512;2023-02-21T07:10:16;100743.53;;;30.55;55.99
36798;BME280;22748;8.426;99.512;2023-02-21T07:12:48;100741.84;;;30.61;56.25
36798;BME280;22748;8.426;99.512;2023-02-21T07:15:19;100735.84;;;30.59;56.09
36798;BME280;22748;8.426;99.512;2023-02-21T07:17:53;100735.78;;;30.65;55.62
36798;BME280;22748;8.426;99.512;2023-02-21T07:20:24;100725.81;;;30.66;55.39
36798;BME280;22748;8.426;99.512;2023-02-21T07:22:58;100721.75;;;30.57;55.07
36798;BME280;22748;8.426;99.512;2023-02-21T07:25:34;100716.38;;;30.57;55.66
36798;BME280;22748;8.426;99.512;2023-02-21T07:28:04;100711.75;;;30.64;55.25
36798;BME280;22748;8.426;99.512;2023-02-21T07:30:34;100701.75;;;30.71;55.31
36798;BME280;22748;8.426;99.512;2023-02-21T07:33:05;100704.44;;;30.71;55.47
36798;BME280;22748;8.426;99.512;2023-02-21T07:35:35;100694.38;;;30.60;55.55
36798;BME280;22748;8.426;99.512;2023-02-21T07:38:05;100697.22;;;30.65;55.57
36798;BME280;22748;8.426;99.512;2023-02-21T07:40:37;100692.44;;;30.67;55.56
36798;BME280;22748;8.426;99.512;2023-02-21T07:43:08;100684.69;;;30.77;55.22
36798;BME280;22748;8.426;99.512;2023-02-21T07:45:38;100682.75;;;30.84;54.76
36798;BME280;22748;8.426;99.512;2023-02-21T07:48:10;100672.16;;;30.89;54.52
36798;BME280;22748;8.426;99.512;2023-02-21T07:50:42;100667.16;;;30.93;54.29
36798;BME280;22748;8.426;99.512;2023-02-21T07:53:11;100666.94;;;30.94;54.94
36798;BME280;22748;8.426;99.512;2023-02-21T07:55:47;100661.69;;;31.00;54.32
36798;BME280;22748;8.426;99.512;2023-02-21T07:58:16;100660.22;;;31.04;54.45
36798;BME280;22748;8.426;99.512;2023-02-21T08:00:46;100651.34;;;30.96;54.27
36798;BME280;22748;8.426;99.512;2023-02-21T08:03:16;100655.25;;;31.01;54.52
36798;BME280;22748;8.426;99.512;2023-02-21T08:05:47;100652.94;;;31.04;53.98
36798;BME280;22748;8.426;99.512;2023-02-21T08:08:17;100659.75;;;31.07;54.02
36798;BME280;22748;8.426;99.512;2023-02-21T08:10:49;100656.25;;;31.06;54.46
36798;BME280;22748;8.426;99.512;2023-02-21T08:13:19;100649.13;;;31.12;53.66
36798;BME280;22748;8.426;99.512;2023-02-21T08:15:50;100646.66;;;31.10;53.57
36798;BME280;22748;8.426;99.512;2023-02-21T08:18:21;100642.97;;;31.05;53.19
36798;BME280;22748;8.426;99.512;2023-02-21T08:20:53;100646.25;;;31.07;53.86
36798;BME280;22748;8.426;99.512;2023-02-21T08:23:25;100645.16;;;31.14;53.19
36798;BME280;22748;8.426;99.512;2023-02-21T08:25:57;100647.41;;;31.17;52.91
36798;BME280;22748;8.426;99.512;2023-02-21T08:28:28;100638.03;;;31.20;53.19
36798;BME280;22748;8.426;99.512;2023-02-21T08:30:57;100641.31;;;31.22;52.78
36798;BME280;22748;8.426;99.512;2023-02-21T08:33:28;100644.03;;;31.22;53.54
36798;BME280;22748;8.426;99.512;2023-02-21T08:35:59;100634.91;;;31.23;53.44
36798;BME280;22748;8.426;99.512;2023-02-21T08:38:30;100641.50;;;31.27;53.75
36798;BME280;22748;8.426;99.512;2023-02-21T08:41:05;100635.78;;;31.17;54.04
36798;BME280;22748;8.426;99.512;2023-02-21T08:43:40;100642.16;;;31.23;54.01
36798;BME280;22748;8.426;99.512;2023-02-21T08:46:10;100636.91;;;31.28;53.90
36798;BME280;22748;8.426;99.512;2023-02-21T08:48:43;100633.53;;;31.32;53.87
36798;BME280;22748;8.426;99.512;2023-02-21T08:51:17;100626.66;;;31.36;53.60
36798;BME280;22748;8.426;99.512;2023-02-21T08:53:53;100627.69;;;31.35;53.02
36798;BME280;22748;8.426;99.512;2023-02-21T08:56:26;100621.53;;;31.28;53.04
36798;BME280;22748;8.426;99.512;2023-02-21T08:58:57;100628.91;;;31.21;53.48
36798;BME280;22748;8.426;99.512;2023-02-21T09:01:31;100631.75;;;31.26;53.70
36798;BME280;22748;8.426;99.512;2023-02-21T09:04:04;100630.25;;;31.30;53.69
36798;BME280;22748;8.426;99.512;2023-02-21T09:06:36;100631.22;;;31.36;53.49
36798;BME280;22748;8.426;99.512;2023-02-21T09:09:06;100633.88;;;31.43;53.52
36798;BME280;22748;8.426;99.512;2023-02-21T09:11:45;100635.88;;;31.47;53.26
36798;BME280;22748;8.426;99.512;2023-02-21T09:14:16;100637.09;;;31.51;53.11
36798;BME280;22748;8.426;99.512;2023-02-21T09:16:46;100633.31;;;31.52;53.20
36798;BME280;22748;8.426;99.512;2023-02-21T09:19:16;100639.78;;;31.51;53.48
36798;BME280;22748;8.426;99.512;2023-02-21T09:21:57;100645.78;;;31.53;53.79
36798;BME280;22748;8.426;99.512;2023-02-21T09:24:28;100641.19;;;31.54;53.73
36798;BME280;22748;8.426;99.512;2023-02-21T09:27:04;100648.22;;;31.55;53.65
36798;BME280;22748;8.426;99.512;2023-02-21T09:29:44;100651.53;;;31.57;53.80
36798;BME280;22748;8.426;99.512;2023-02-21T09:32:13;100650.25;;;31.60;53.77
36798;BME280;22748;8.426;99.512;2023-02-21T09:34:44;100654.63;;;31.61;53.35
36798;BME280;22748;8.426;99.512;2023-02-21T09:37:13;100652.72;;;31.61;53.77
36798;BME280;22748;8.426;99.512;2023-02-21T09:39:47;100651.69;;;31.62;53.42
36798;BME280;22748;8.426;99.512;2023-02-21T09:42:26;100654.16;;;31.64;53.58
36798;BME280;22748;8.426;99.512;2023-02-21T09:44:56;100648.53;;;31.65;53.72
36798;BME280;22748;8.426;99.512;2023-02-21T09:47:29;100651.22;;;31.65;53.66
36798;BME280;22748;8.426;99.512;2023-02-21T09:50:09;100652.91;;;31.66;53.33
36798;BME280;22748;8.426;99.512;2023-02-21T09:52:45;100657.69;;;31.64;53.47
36798;BME280;22748;8.426;99.512;2023-02-21T09:55:25;100657.09;;;31.62;53.54
36798;BME280;22748;8.426;99.512;2023-02-21T09:57:58;100661.03;;;31.60;53.46
36798;BME280;22748;8.426;99.512;2023-02-21T10:00:35;100660.47;;;31.58;53.48
36798;BME280;22748;8.426;99.512;2023-02-21T10:03:18;100667.72;;;31.57;53.86
36798;BME280;22748;8.426;99.512;2023-02-21T10:05:57;100671.94;;;31.53;54.12
36798;BME280;22748;8.426;99.512;2023-02-21T10:08:40;100669.56;;;31.45;54.41
36798;BME280;22748;8.426;99.512;2023-02-21T10:11:26;100662.94;;;31.41;54.62
36798;BME280;22748;8.426;99.512;2023-02-21T10:14:08;100657.09;;;31.44;54.28
36798;BME280;22748;8.426;99.512;2023-02-21T10:16:50;100660.22;;;31.41;54.37
36798;BME280;22748;8.426;99.512;2023-02-21T10:19:27;100665.47;;;31.35;54.34
36798;BME280;22748;8.426;99.512;2023-02-21T10:22:13;100668.16;;;31.35;54.51
36798;BME280;22748;8.426;99.512;2023-02-21T10:24:44;100672.06;;;31.40;54.20
36798;BME280;22748;8.426;99.512;2023-02-21T10:27:19;100676.41;;;31.41;54.30
36798;BME280;22748;8.426;99.512;2023-02-21T10:29:58;100687.22;;;31.41;54.17
36798;BME280;22748;8.426;99.512;2023-02-21T10:32:32;100682.84;;;31.40;53.82
36798;BME280;22748;8.426;99.512;2023-02-21T10:35:02;100689.06;;;31.40;54.28
36798;BME280;22748;8.426;99.512;2023-02-21T10:37:38;100693.66;;;31.40;54.05
36798;BME280;22748;8.426;99.512;2023-02-21T10:40:27;100693.66;;;31.40;53.87
36798;BME280;22748;8.426;99.512;2023-02-21T10:43:05;100697.41;;;31.39;53.59
36798;BME280;22748;8.426;99.512;2023-02-21T10:45:44;100703.25;;;31.35;53.70
36798;BME280;22748;8.426;99.512;2023-02-21T10:48:16;100710.72;;;31.33;53.96
36798;BME280;22748;8.426;99.512;2023-02-21T10:51:05;100713.44;;;31.33;53.91
36798;BME280;22748;8.426;99.512;2023-02-21T10:53:38;100717.19;;;31.32;54.21
36798;BME280;22748;8.426;99.512;2023-02-21T10:56:25;100719.88;;;31.32;54.33
36798;BME280;22748;8.426;99.512;2023-02-21T10:59:00;100719.88;;;31.32;54.34
36798;BME280;22748;8.426;99.512;2023-02-21T11:01:36;100719.06;;;31.32;54.66
36798;BME280;22748;8.426;99.512;2023-02-21T11:04:25;100731.50;;;31.33;54.30
36798;BME280;22748;8.426;99.512;2023-02-21T11:06:58;100743.09;;;31.33;54.46
36798;BME280;22748;8.426;99.512;2023-02-21T11:09:37;100739.22;;;31.29;54.41
36798;BME280;22748;8.426;99.512;2023-02-21T11:12:21;100746.13;;;31.25;54.73
36798;BME280;22748;8.426;99.512;2023-02-21T11:15:13;100751.19;;;31.15;54.64
36798;BME280;22748;8.426;99.512;2023-02-21T11:18:03;100759.72;;;31.12;55.08
36798;BME280;22748;8.426;99.512;2023-02-21T11:20:33;100762.78;;;31.15;54.95
36798;BME280;22748;8.426;99.512;2023-02-21T11:23:03;100764.41;;;30.98;54.12
36798;BME280;22748;8.426;99.512;2023-02-21T11:25:39;100767.16;;;30.91;54.53
36798;BME280;22748;8.426;99.512;2023-02-21T11:28:19;100770.47;;;30.93;54.72
36798;BME280;22748;8.426;99.512;2023-02-21T11:31:05;100767.97;;;30.92;54.20
36798;BME280;22748;8.426;99.512;2023-02-21T11:33:50;100774.25;;;30.86;54.30
36798;BME280;22748;8.426;99.512;2023-02-21T11:36:26;100780.03;;;30.83;54.43
36798;BME280;22748;8.426;99.512;2023-02-21T11:39:05;100788.03;;;30.71;54.88
36798;BME280;22748;8.426;99.512;2023-02-21T11:41:45;100786.53;;;30.75;54.86
36798;BME280;22748;8.426;99.512;2023-02-21T11:44:28;100782.94;;;30.81;54.84
36798;BME280;22748;8.426;99.512;2023-02-21T11:47:12;100790.06;;;30.75;54.48
36798;BME280;22748;8.426;99.512;2023-02-21T11:49:50;100796.56;;;30.61;54.81
36798;BME280;22748;8.426;99.512;2023-02-21T11:52:26;100796.81;;;30.60;54.71
36798;BME280;22748;8.426;99.512;2023-02-21T11:54:59;100804.97;;;30.40;56.61
36798;BME280;22748;8.426;99.512;2023-02-21T11:57:33;100818.50;;;30.20;58.33
36798;BME280;22748;8.426;99.512;2023-02-21T12:00:13;100812.09;;;30.21;58.17
36798;BME280;22748;8.426;99.512;2023-02-21T12:02:59;100811.47;;;30.25;58.31
36798;BME280;22748;8.426;99.512;2023-02-21T12:05:52;100811.47;;;30.25;58.90
36798;BME280;22748;8.426;99.512;2023-02-21T12:08:39;100810.63;;;30.25;58.77
36798;BME280;22748;8.426;99.512;2023-02-21T12:11:23;100814.34;;;30.24;59.17
36798;BME280;22748;8.426;99.512;2023-02-21T12:17:20;100812.28;;;30.26;59.12
36798;BME280;22748;8.426;99.512;2023-02-21T12:23:08;100814.53;;;30.42;59.09
36798;BME280;22748;8.426;99.512;2023-02-21T12:25:56;100820.50;;;30.51;59.59
36798;BME280;22748;8.426;99.512;2023-02-21T12:28:36;100818.56;;;30.58;59.69
36798;BME280;22748;8.426;99.512;2023-02-21T12:31:28;100821.66;;;30.62;59.25
36798;BME280;22748;8.426;99.512;2023-02-21T12:34:19;100823.31;;;30.63;59.39
36798;BME280;22748;8.426;99.512;2023-02-21T12:37:06;100828.25;;;30.66;59.32
36798;BME280;22748;8.426;99.512;2023-02-21T12:39:57;100834.72;;;30.65;59.64
36798;BME280;22748;8.426;99.512;2023-02-21T12:42:53;100838.22;;;30.65;59.04
36798;BME280;22748;8.426;99.512;2023-02-21T12:45:44;100835.75;;;30.64;59.28
36798;BME280;22748;8.426;99.512;2023-02-21T12:48:32;100844.88;;;30.63;59.35
36798;BME280;22748;8.426;99.512;2023-02-21T12:51:08;100846.16;;;30.60;59.41
36798;BME280;22748;8.426;99.512;2023-02-21T12:53:44;100855.25;;;30.59;59.52
36798;BME280;22748;8.426;99.512;2023-02-21T12:56:26;100859.81;;;30.59;59.74
36798;BME280;22748;8.426;99.512;2023-02-21T12:59:01;100862.06;;;30.62;59.63
36798;BME280;22748;8.426;99.512;2023-02-21T13:01:35;100869.34;;;30.61;59.80
36798;BME280;22748;8.426;99.512;2023-02-21T13:04:18;100880.56;;;30.58;60.30
36798;BME280;22748;8.426;99.512;2023-02-21T13:06:56;100878.91;;;30.57;59.83
36798;BME280;22748;8.426;99.512;2023-02-21T13:09:35;100878.09;;;30.57;60.16
36798;BME280;22748;8.426;99.512;2023-02-21T13:12:15;100880.16;;;30.54;59.55
36798;BME280;22748;8.426;99.512;2023-02-21T13:14:49;100883.47;;;30.57;59.20
36798;BME280;22748;8.426;99.512;2023-02-21T13:17:22;100878.91;;;30.57;59.57
36798;BME280;22748;8.426;99.512;2023-02-21T13:19:58;100889.91;;;30.55;59.72
36798;BME280;22748;8.426;99.512;2023-02-21T13:22:32;100889.06;;;30.55;59.97
36798;BME280;22748;8.426;99.512;2023-02-21T13:25:12;100895.31;;;30.55;60.21
36798;BME280;22748;8.426;99.512;2023-02-21T13:27:54;100898.00;;;30.55;60.28
36798;BME280;22748;8.426;99.512;2023-02-21T13:30:38;100893.03;;;30.52;60.13
36798;BME280;22748;8.426;99.512;2023-02-21T13:33:26;100895.09;;;30.50;60.41
36798;BME280;22748;8.426;99.512;2023-02-21T13:35:59;100896.78;;;30.51;60.03
36798;BME280;22748;8.426;99.512;2023-02-21T13:38:32;100891.78;;;30.48;60.16
36798;BME280;22748;8.426;99.512;2023-02-21T13:41:08;100899.25;;;30.46;60.56
36798;BME280;22748;8.426;99.512;2023-02-21T13:43:50;100900.13;;;30.47;60.73
36798;BME280;22748;8.426;99.512;2023-02-21T13:46:54;100899.50;;;30.45;60.70
36798;BME280;22748;8.426;99.512;2023-02-21T13:52:24;100914.22;;;30.42;60.99
36798;BME280;22748;8.426;99.512;2023-02-21T14:01:16;100914.22;;;30.42;60.82